createdAt,value
2022-10-06T00:02:03.008Z,4.15
2022-10-06T00:04:31.194Z,3.55
2022-10-06T00:06:59.033Z,4.05
2022-10-06T00:09:26.752Z,3.50
2022-10-06T00:11:56.080Z,3.65
2022-10-06T00:14:23.780Z,4.35
2022-10-06T00:16:51.482Z,4.80
2022-10-06T00:19:19.518Z,3.97
2022-10-06T00:21:47.309Z,4.80
2022-10-06T00:24:15.014Z,5.47
2022-10-06T00:26:43.221Z,6.15
2022-10-06T00:29:13.406Z,8.75
2022-10-06T00:31:41.770Z,11.10
2022-10-06T00:34:10.235Z,10.90
2022-10-06T00:36:38.095Z,10.80
2022-10-06T00:39:06.209Z,11.68
2022-10-06T00:41:34.413Z,12.82
2022-10-06T00:44:02.469Z,13.07
2022-10-06T00:46:36.384Z,13.10
2022-10-06T00:49:11.444Z,12.90
2022-10-06T00:51:45.394Z,13.63
2022-10-06T00:54:14.254Z,13.20
2022-10-06T00:56:42.317Z,14.07
2022-10-06T00:59:12.241Z,15.02
2022-10-06T01:01:45.496Z,14.93
2022-10-06T01:04:17.755Z,14.57
2022-10-06T01:06:47.962Z,14.25
2022-10-06T01:09:17.582Z,14.23
2022-10-06T01:11:47.511Z,14.45
2022-10-06T01:14:16.038Z,14.88
2022-10-06T01:16:51.943Z,14.95
2022-10-06T01:19:36.006Z,14.35
2022-10-06T01:22:08.459Z,14.27
2022-10-06T01:24:38.078Z,14.77
2022-10-06T01:27:09.293Z,14.85
2022-10-06T01:29:38.020Z,15.27
2022-10-06T01:32:05.825Z,15.98
2022-10-06T01:34:33.885Z,15.50
2022-10-06T01:37:01.903Z,14.98
2022-10-06T01:39:29.672Z,16.02
2022-10-06T01:41:58.803Z,15.57
2022-10-06T01:44:26.794Z,15.68
2022-10-06T01:46:54.490Z,15.57
2022-10-06T01:49:22.258Z,15.80
2022-10-06T01:51:50.391Z,14.57
2022-10-06T01:54:18.116Z,14.38
2022-10-06T01:56:45.800Z,13.98
2022-10-06T01:59:15.224Z,14.55
2022-10-06T02:01:43.058Z,14.57
2022-10-06T02:04:10.874Z,14.15
2022-10-06T02:06:38.958Z,14.68
2022-10-06T02:09:07.393Z,14.20
2022-10-06T02:11:35.547Z,13.95
2022-10-06T02:14:03.613Z,13.38
2022-10-06T02:16:32.652Z,13.23
2022-10-06T02:19:00.338Z,12.52
2022-10-06T02:21:28.636Z,13.65
2022-10-06T02:23:57.077Z,11.88
2022-10-06T02:26:24.945Z,12.25
2022-10-06T02:28:53.025Z,11.93
2022-10-06T02:31:20.872Z,12.32
2022-10-06T02:33:50.209Z,12.13
2022-10-06T02:36:18.744Z,13.43
2022-10-06T02:38:46.617Z,13.57
2022-10-06T02:41:14.355Z,14.98
2022-10-06T02:43:42.479Z,14.50
2022-10-06T02:46:13.019Z,13.73
2022-10-06T02:48:41.549Z,14.00
2022-10-06T02:51:12.957Z,15.05
2022-10-06T02:53:40.968Z,13.37
2022-10-06T02:56:10.865Z,13.15
2022-10-06T02:58:40.270Z,14.75
2022-10-06T03:01:10.094Z,14.60
2022-10-06T03:03:38.101Z,14.85
2022-10-06T03:06:21.631Z,15.07
2022-10-06T03:08:52.451Z,16.05
2022-10-06T03:11:21.744Z,16.95
2022-10-06T03:13:52.097Z,17.08
2022-10-06T03:16:21.948Z,17.25
2022-10-06T03:18:52.365Z,16.75
2022-10-06T03:21:21.793Z,17.08
2022-10-06T03:23:53.316Z,16.05
2022-10-06T03:26:23.911Z,17.85
2022-10-06T03:28:51.593Z,16.58
2022-10-06T03:31:19.335Z,14.48
2022-10-06T03:33:47.599Z,18.15
2022-10-06T03:36:17.932Z,18.58
2022-10-06T03:38:45.715Z,19.58
2022-10-06T03:41:17.501Z,17.38
2022-10-06T03:43:46.982Z,16.42
2022-10-06T03:46:16.852Z,15.43
2022-10-06T03:48:44.884Z,13.20
2022-10-06T03:51:14.837Z,14.50
2022-10-06T03:53:45.713Z,15.85
2022-10-06T03:56:16.933Z,13.82
2022-10-06T03:58:47.070Z,16.75
2022-10-06T04:01:20.041Z,15.15
2022-10-06T04:03:50.733Z,16.85
2022-10-06T04:06:20.394Z,16.98
2022-10-06T04:08:49.661Z,15.60
2022-10-06T04:11:21.598Z,16.48
2022-10-06T04:13:54.324Z,16.80
2022-10-06T04:16:26.021Z,17.05
2022-10-06T04:18:55.875Z,16.85
2022-10-06T04:21:24.978Z,13.77
2022-10-06T04:23:53.221Z,16.40
2022-10-06T04:26:24.432Z,13.73
2022-10-06T04:28:52.513Z,13.45
2022-10-06T04:31:22.586Z,12.52
2022-10-06T04:33:53.311Z,13.30
2022-10-06T04:36:23.814Z,14.45
2022-10-06T04:38:54.029Z,13.02
2022-10-06T04:41:25.281Z,12.40
2022-10-06T04:43:53.812Z,13.25
2022-10-06T04:46:43.318Z,11.80
2022-10-06T04:49:14.934Z,12.52
2022-10-06T04:51:46.606Z,11.68
2022-10-06T04:54:14.767Z,13.20
2022-10-06T04:56:44.009Z,12.13
2022-10-06T04:59:11.789Z,12.10
2022-10-06T05:01:39.913Z,11.18
2022-10-06T05:04:07.971Z,12.57
2022-10-06T05:06:37.524Z,11.18
2022-10-06T05:09:07.537Z,10.52
2022-10-06T05:11:35.740Z,10.93
2022-10-06T05:14:04.893Z,11.55
2022-10-06T05:16:33.539Z,9.57
2022-10-06T05:19:01.571Z,10.07
2022-10-06T05:21:31.304Z,11.05
2022-10-06T05:23:59.999Z,9.50
2022-10-06T05:26:29.760Z,10.70
2022-10-06T05:28:57.932Z,9.70
2022-10-06T05:31:28.664Z,9.23
2022-10-06T05:33:58.105Z,9.75
2022-10-06T05:36:28.605Z,10.05
2022-10-06T05:38:57.126Z,9.73
2022-10-06T05:41:26.627Z,10.07
2022-10-06T05:43:54.521Z,8.70
2022-10-06T05:46:36.472Z,10.68
2022-10-06T05:49:07.029Z,11.40
2022-10-06T05:51:36.386Z,11.23
2022-10-06T05:54:04.472Z,11.02
2022-10-06T05:56:34.337Z,11.15
2022-10-06T05:59:02.716Z,11.15
2022-10-06T06:01:32.238Z,10.75
2022-10-06T06:04:03.229Z,11.93
2022-10-06T06:06:32.832Z,11.15
2022-10-06T06:09:02.084Z,11.13
2022-10-06T06:11:32.338Z,10.90
2022-10-06T06:14:02.159Z,10.75
2022-10-06T06:16:31.097Z,10.50
2022-10-06T06:19:01.239Z,9.90
2022-10-06T06:21:29.864Z,9.70
2022-10-06T06:23:58.569Z,10.43
2022-10-06T06:26:28.711Z,9.57
2022-10-06T06:29:03.953Z,9.85
2022-10-06T06:31:33.842Z,9.18
2022-10-06T06:34:04.814Z,11.32
2022-10-06T06:36:35.629Z,10.93
2022-10-06T06:39:06.307Z,11.30
2022-10-06T06:41:37.649Z,10.93
2022-10-06T06:44:06.842Z,11.10
2022-10-06T06:49:12.022Z,9.90
2022-10-06T06:51:42.346Z,10.90
2022-10-06T06:54:12.822Z,10.88
2022-10-06T06:56:41.294Z,12.50
2022-10-06T06:59:11.708Z,11.85
2022-10-06T07:01:44.210Z,11.75
2022-10-06T07:04:15.875Z,11.23
2022-10-06T07:06:47.512Z,11.40
2022-10-06T07:09:15.585Z,11.32
2022-10-06T07:11:43.319Z,11.25
2022-10-06T07:14:12.630Z,11.68
2022-10-06T07:16:58.285Z,12.27
2022-10-06T07:19:45.255Z,11.90
2022-10-06T07:22:35.157Z,13.35
2022-10-06T07:25:08.642Z,11.63
2022-10-06T07:27:41.196Z,12.65
2022-10-06T07:30:11.191Z,11.02
2022-10-06T07:32:39.465Z,10.07
2022-10-06T07:35:09.445Z,10.40
2022-10-06T07:37:37.337Z,11.15
2022-10-06T07:40:07.004Z,9.52
2022-10-06T07:42:48.002Z,10.23
2022-10-06T07:45:35.200Z,10.52
2022-10-06T07:48:03.508Z,9.07
2022-10-06T07:50:33.537Z,9.43
2022-10-06T07:53:05.023Z,10.50
2022-10-06T07:55:33.224Z,10.63
2022-10-06T07:58:00.992Z,9.45
2022-10-06T08:00:28.847Z,9.43
2022-10-06T08:02:57.158Z,9.23
2022-10-06T08:05:24.960Z,8.90
2022-10-06T08:07:54.946Z,9.18
2022-10-06T08:10:23.036Z,8.45
2022-10-06T08:12:50.765Z,8.52
2022-10-06T08:15:18.747Z,8.90
2022-10-06T08:17:46.929Z,8.80
2022-10-06T08:20:17.038Z,8.20
2022-10-06T08:22:45.242Z,8.27
2022-10-06T08:25:15.056Z,7.82
2022-10-06T08:27:44.058Z,7.05
2022-10-06T08:30:13.449Z,7.60
2022-10-06T08:32:42.833Z,7.28
2022-10-06T08:35:11.545Z,7.05
2022-10-06T08:37:39.372Z,6.93
2022-10-06T08:40:08.413Z,7.68
2022-10-06T08:42:42.200Z,7.32
2022-10-06T08:45:15.503Z,7.30
2022-10-06T08:47:51.855Z,7.95
2022-10-06T08:50:22.173Z,6.80
2022-10-06T08:52:56.927Z,7.03
2022-10-06T08:55:35.151Z,7.03
2022-10-06T08:58:23.375Z,6.13
2022-10-06T09:00:56.700Z,6.18
2022-10-06T09:03:29.525Z,6.50
2022-10-06T09:06:09.158Z,5.60
2022-10-06T09:08:48.717Z,4.32
2022-10-06T09:11:29.321Z,4.50
2022-10-06T09:14:04.164Z,4.32
2022-10-06T09:16:37.876Z,4.70
2022-10-06T09:19:13.659Z,4.30
2022-10-06T09:21:46.426Z,4.15
2022-10-06T09:24:17.476Z,3.60
2022-10-06T09:26:47.223Z,3.53
2022-10-06T09:29:17.619Z,3.30
2022-10-06T09:31:51.023Z,3.50
2022-10-06T09:34:27.637Z,3.05
2022-10-06T09:37:04.213Z,3.20
2022-10-06T09:39:36.739Z,3.35
2022-10-06T09:42:14.622Z,3.50
2022-10-06T09:44:56.525Z,3.63
2022-10-06T09:47:34.895Z,3.25
2022-10-06T09:50:05.092Z,3.53
2022-10-06T09:52:33.081Z,2.92
2022-10-06T09:55:10.074Z,3.72
2022-10-06T09:57:38.284Z,3.30
2022-10-06T10:00:27.524Z,3.33
2022-10-06T10:02:59.505Z,2.92
2022-10-06T10:05:29.323Z,3.28
2022-10-06T10:08:10.020Z,3.10
2022-10-06T10:10:38.377Z,3.70
2022-10-06T10:13:19.707Z,2.80
2022-10-06T10:15:55.265Z,3.17
2022-10-06T10:18:30.295Z,3.20
2022-10-06T10:21:00.169Z,2.83
2022-10-06T10:23:33.343Z,2.97
2022-10-06T10:26:26.988Z,2.67
2022-10-06T10:29:17.473Z,3.15
2022-10-06T10:32:02.456Z,2.83
2022-10-06T10:34:48.544Z,3.17
2022-10-06T10:37:23.774Z,2.90
2022-10-06T10:39:57.096Z,2.65
2022-10-06T10:42:32.277Z,3.28
2022-10-06T10:45:02.726Z,2.88
2022-10-06T10:47:36.628Z,3.47
2022-10-06T10:50:14.111Z,2.70
2022-10-06T10:52:46.805Z,3.45
2022-10-06T10:55:23.269Z,3.08
2022-10-06T10:57:53.650Z,3.10
2022-10-06T11:00:25.246Z,3.85
2022-10-06T11:02:56.333Z,2.75
2022-10-06T11:05:37.770Z,2.88
2022-10-06T11:08:12.437Z,2.60
2022-10-06T11:10:48.531Z,2.85
2022-10-06T11:13:28.409Z,2.90
2022-10-06T11:16:19.538Z,3.22
2022-10-06T11:19:04.632Z,3.58
2022-10-06T11:21:37.420Z,2.83
2022-10-06T11:24:15.549Z,3.20
2022-10-06T11:27:08.208Z,3.70
2022-10-06T11:29:47.477Z,3.05
2022-10-06T11:32:26.429Z,3.22
2022-10-06T11:34:57.072Z,2.97
2022-10-06T11:37:37.048Z,3.03
2022-10-06T11:40:22.900Z,2.97
2022-10-06T11:42:56.764Z,2.60
2022-10-06T11:45:31.840Z,3.42
2022-10-06T11:48:23.229Z,3.40
2022-10-06T11:50:55.357Z,3.40
2022-10-06T11:53:37.898Z,2.63
2022-10-06T11:56:39.578Z,2.95
2022-10-06T12:01:56.895Z,2.72
2022-10-06T12:04:27.582Z,3.60
2022-10-06T12:07:01.485Z,3.28
2022-10-06T12:09:52.321Z,3.45
2022-10-06T12:13:06.211Z,3.30
2022-10-06T12:19:07.985Z,3.78
2022-10-06T12:21:48.733Z,3.17
2022-10-06T12:24:33.339Z,3.42
2022-10-06T12:27:27.122Z,3.65
2022-10-06T12:30:02.913Z,4.20
2022-10-06T12:32:46.327Z,3.47
2022-10-06T12:35:25.929Z,3.50
2022-10-06T12:37:55.073Z,3.13
2022-10-06T12:40:44.185Z,3.75
2022-10-06T12:43:34.388Z,3.40
2022-10-06T12:46:06.189Z,3.72
2022-10-06T12:48:40.637Z,3.38
2022-10-06T12:51:21.715Z,3.88
2022-10-06T12:53:58.519Z,3.30
2022-10-06T12:56:32.641Z,4.53
2022-10-06T12:59:20.278Z,4.07
2022-10-06T13:01:50.660Z,3.78
2022-10-06T13:04:33.781Z,3.50
2022-10-06T13:07:08.537Z,4.40
2022-10-06T13:09:37.515Z,4.45
2022-10-06T13:12:28.789Z,4.63
2022-10-06T13:15:17.995Z,3.88
2022-10-06T13:17:49.342Z,3.63
2022-10-06T13:20:35.409Z,3.85
2022-10-06T13:23:10.164Z,3.83
2022-10-06T13:25:47.229Z,3.78
2022-10-06T13:28:26.463Z,3.42
2022-10-06T13:30:56.650Z,3.15
2022-10-06T13:33:26.417Z,2.75
2022-10-06T13:35:55.333Z,3.33
2022-10-06T13:38:23.473Z,3.45
2022-10-06T13:41:18.013Z,3.05
2022-10-06T13:43:52.412Z,3.10
2022-10-06T13:46:23.857Z,3.90
2022-10-06T13:48:55.794Z,3.17
2022-10-06T13:51:29.551Z,3.35
2022-10-06T13:53:58.872Z,3.88
2022-10-06T13:56:35.727Z,3.28
2022-10-06T13:59:30.062Z,3.10
2022-10-06T14:01:59.407Z,3.03
2022-10-06T14:04:27.474Z,3.10
2022-10-06T14:06:59.423Z,3.15
2022-10-06T14:09:30.486Z,2.70
2022-10-06T14:12:04.539Z,3.20
2022-10-06T14:14:34.590Z,3.30
2022-10-06T14:17:02.788Z,3.28
2022-10-06T14:19:34.718Z,2.72
2022-10-06T14:22:04.669Z,3.10
2022-10-06T14:24:34.141Z,3.30
2022-10-06T14:27:05.474Z,3.70
2022-10-06T14:29:37.791Z,3.97
2022-10-06T14:32:15.789Z,3.20
2022-10-06T14:34:43.992Z,2.88
2022-10-06T14:37:15.257Z,3.30
2022-10-06T14:42:14.325Z,3.20
2022-10-06T14:44:43.433Z,3.67
2022-10-06T14:47:11.656Z,2.90
2022-10-06T14:49:40.424Z,3.55
2022-10-06T14:52:10.472Z,3.95
2022-10-06T14:54:38.533Z,4.28
2022-10-06T14:57:06.441Z,3.95
2022-10-06T14:59:34.190Z,4.57
2022-10-06T15:02:03.806Z,4.72
2022-10-06T15:04:31.645Z,4.43
2022-10-06T15:07:17.030Z,4.40
2022-10-06T15:09:45.106Z,5.32
2022-10-06T15:12:13.055Z,4.50
2022-10-06T15:14:40.948Z,4.22
2022-10-06T15:17:10.836Z,4.70
2022-10-06T15:19:40.205Z,4.50
2022-10-06T15:22:09.969Z,5.18
2022-10-06T15:24:38.084Z,4.50
2022-10-06T15:27:25.015Z,4.30
2022-10-06T15:29:53.544Z,4.75
2022-10-06T15:32:22.775Z,5.15
2022-10-06T15:34:52.162Z,7.32
2022-10-06T15:37:20.188Z,6.47
2022-10-06T15:39:48.010Z,6.60
2022-10-06T15:42:18.631Z,7.90
2022-10-06T15:44:46.744Z,9.68
2022-10-06T15:47:14.509Z,10.52
2022-10-06T15:49:44.258Z,11.48
2022-10-06T15:52:13.474Z,11.18
2022-10-06T15:54:42.466Z,10.95
2022-10-06T15:57:17.933Z,8.98
2022-10-06T15:59:48.386Z,10.18
2022-10-06T16:02:17.780Z,11.50
2022-10-06T16:05:15.185Z,11.10
2022-10-06T16:07:43.306Z,12.55
2022-10-06T16:10:12.096Z,12.70
2022-10-06T16:12:39.804Z,14.45
2022-10-06T16:15:08.618Z,14.85
2022-10-06T16:17:36.841Z,14.20
2022-10-06T16:20:06.854Z,11.98
2022-10-06T16:22:35.369Z,18.08
2022-10-06T16:25:03.329Z,25.08
2022-10-06T16:27:33.486Z,27.13
2022-10-06T16:30:01.762Z,24.48
2022-10-06T16:32:29.545Z,19.17
2022-10-06T16:34:57.450Z,16.98
2022-10-06T16:37:26.840Z,16.67
2022-10-06T16:39:54.644Z,14.43
2022-10-06T16:42:22.594Z,13.07
2022-10-06T16:44:50.414Z,13.45
2022-10-06T16:47:18.196Z,12.73
2022-10-06T16:49:46.103Z,12.38
2022-10-06T16:52:14.032Z,11.93
2022-10-06T16:54:43.121Z,11.75
2022-10-06T16:57:11.061Z,10.68
2022-10-06T16:59:41.137Z,10.27
2022-10-06T17:02:12.444Z,9.55
2022-10-06T17:04:40.257Z,9.35
2022-10-06T17:07:08.017Z,10.40
2022-10-06T17:09:36.218Z,11.23
2022-10-06T17:12:05.875Z,11.20
2022-10-06T17:14:34.553Z,14.52
2022-10-06T17:17:02.469Z,15.85
2022-10-06T17:19:31.157Z,19.88
2022-10-06T17:22:00.175Z,19.48
2022-10-06T17:24:31.198Z,19.13
2022-10-06T17:26:59.524Z,19.90
2022-10-06T17:29:28.903Z,19.42
2022-10-06T17:31:59.014Z,19.90
2022-10-06T17:34:32.215Z,19.92
2022-10-06T17:37:01.948Z,20.23
2022-10-06T17:39:30.098Z,21.80
2022-10-06T17:41:58.009Z,21.55
2022-10-06T17:44:28.428Z,20.52
2022-10-06T17:47:00.357Z,18.98
2022-10-06T17:49:30.339Z,18.63
2022-10-06T17:51:58.795Z,17.13
2022-10-06T17:54:28.698Z,19.20
2022-10-06T17:56:59.088Z,19.35
2022-10-06T17:59:30.122Z,18.42
2022-10-06T18:02:02.433Z,18.60
2022-10-06T18:04:33.712Z,20.00
2022-10-06T18:07:02.085Z,19.55
2022-10-06T18:09:30.354Z,19.10
2022-10-06T18:11:59.860Z,17.92
2022-10-06T18:14:32.169Z,16.38
2022-10-06T18:17:03.804Z,15.98
2022-10-06T18:19:33.594Z,16.23
2022-10-06T18:22:03.674Z,15.25
2022-10-06T18:24:32.376Z,15.07
2022-10-06T18:27:01.633Z,14.73
2022-10-06T18:29:32.419Z,14.35
2022-10-06T18:32:51.097Z,13.20
2022-10-06T18:37:39.946Z,13.00
2022-10-06T18:40:09.912Z,12.35
2022-10-06T18:42:38.820Z,12.43
2022-10-06T18:45:25.359Z,12.30
2022-10-06T18:48:12.569Z,12.52
2022-10-06T18:50:40.486Z,11.90
2022-10-06T18:53:08.978Z,11.80
2022-10-06T18:55:36.689Z,12.32
2022-10-06T18:58:04.501Z,13.38
2022-10-06T19:00:33.260Z,12.98
2022-10-06T19:03:02.371Z,12.20
2022-10-06T19:05:31.126Z,13.20
2022-10-06T19:07:59.316Z,12.63
2022-10-06T19:10:27.081Z,13.70
2022-10-06T19:12:54.768Z,13.75
2022-10-06T19:15:22.817Z,14.57
2022-10-06T19:17:50.914Z,13.15
2022-10-06T19:20:19.984Z,12.43
2022-10-06T19:22:48.282Z,12.35
2022-10-06T19:25:18.737Z,12.75
2022-10-06T19:27:47.141Z,13.30
2022-10-06T19:30:16.820Z,12.30
2022-10-06T19:32:44.599Z,12.73
2022-10-06T19:35:12.596Z,11.68
2022-10-06T19:37:42.577Z,12.50
2022-10-06T19:40:11.426Z,11.40
2022-10-06T19:42:47.327Z,12.50
2022-10-06T19:45:16.380Z,12.30
2022-10-06T19:47:45.047Z,11.63
2022-10-06T19:50:13.920Z,12.02
2022-10-06T19:52:43.552Z,10.50
2022-10-06T19:55:11.303Z,12.05
2022-10-06T19:57:39.062Z,11.98
2022-10-06T20:00:08.750Z,12.32
2022-10-06T20:02:41.979Z,13.68
2022-10-06T20:05:11.772Z,14.13
2022-10-06T20:07:40.317Z,14.50
2022-10-06T20:10:11.599Z,14.65
2022-10-06T20:12:42.073Z,14.50
2022-10-06T20:15:10.845Z,14.77
2022-10-06T20:17:39.295Z,14.13
2022-10-06T20:20:09.023Z,15.35
2022-10-06T20:22:36.831Z,15.43
2022-10-06T20:25:05.257Z,15.02
2022-10-06T20:27:34.644Z,16.33
2022-10-06T20:30:02.334Z,16.10
2022-10-06T20:32:30.260Z,17.45
2022-10-06T20:34:58.791Z,17.27
2022-10-06T20:37:26.497Z,16.98
2022-10-06T20:40:12.089Z,18.25
2022-10-06T20:42:44.688Z,17.90
2022-10-06T20:45:12.469Z,18.73
2022-10-06T20:47:40.584Z,19.55
2022-10-06T20:50:09.539Z,19.98
2022-10-06T20:52:39.637Z,20.98
2022-10-06T20:55:09.191Z,20.77
2022-10-06T20:57:37.633Z,21.02
2022-10-06T21:00:08.232Z,22.65
2022-10-06T21:02:36.384Z,21.55
2022-10-06T21:05:04.587Z,22.00
2022-10-06T21:07:34.259Z,20.85
2022-10-06T21:10:02.500Z,21.25
2022-10-06T21:12:30.473Z,22.77
2022-10-06T21:14:58.194Z,22.35
2022-10-06T21:17:27.656Z,21.25
2022-10-06T21:19:55.538Z,20.20
2022-10-06T21:22:23.363Z,21.00
2022-10-06T21:24:51.550Z,20.10
2022-10-06T21:27:20.991Z,20.15
2022-10-06T21:29:48.718Z,21.42
2022-10-06T21:32:16.769Z,21.17
2022-10-06T21:34:46.002Z,21.13
2022-10-06T21:37:14.583Z,21.17
2022-10-06T21:39:42.611Z,20.52
2022-10-06T21:42:10.485Z,20.58
2022-10-06T21:44:38.292Z,20.63
2022-10-06T21:47:06.607Z,20.98
2022-10-06T21:49:34.698Z,21.45
2022-10-06T21:52:05.359Z,21.80
2022-10-06T21:54:33.430Z,22.38
2022-10-06T21:57:01.877Z,20.40
2022-10-06T21:59:29.679Z,20.77
2022-10-06T22:01:57.683Z,22.23
2022-10-06T22:04:25.913Z,22.00
2022-10-06T22:06:53.650Z,23.85
2022-10-06T22:09:23.366Z,23.77
2022-10-06T22:11:51.439Z,23.88
2022-10-06T22:14:20.411Z,23.17
2022-10-06T22:16:49.285Z,25.23
2022-10-06T22:19:18.394Z,25.20
2022-10-06T22:21:48.335Z,25.23
2022-10-06T22:24:18.684Z,23.02
2022-10-06T22:26:48.926Z,24.42
2022-10-06T22:29:18.953Z,24.98
2022-10-06T22:31:48.208Z,23.27
2022-10-06T22:34:18.998Z,22.35
2022-10-06T22:36:47.598Z,22.33
2022-10-06T22:39:15.413Z,21.70
2022-10-06T22:41:43.953Z,22.60
2022-10-06T22:44:13.202Z,22.45
2022-10-06T22:46:41.037Z,21.52
2022-10-06T22:49:09.119Z,21.52
2022-10-06T22:51:37.172Z,22.02
2022-10-06T22:54:05.233Z,21.67
2022-10-06T22:56:34.415Z,21.25
2022-10-06T22:59:02.585Z,21.88
2022-10-06T23:01:31.774Z,20.42
2022-10-06T23:04:01.287Z,20.00
2022-10-06T23:06:31.245Z,22.35
2022-10-06T23:08:59.806Z,21.58
2022-10-06T23:11:27.702Z,22.00
2022-10-06T23:13:55.733Z,22.02
2022-10-06T23:16:23.690Z,23.08
2022-10-06T23:18:52.996Z,21.13
2022-10-06T23:21:22.984Z,20.52
2022-10-06T23:23:52.873Z,23.13
2022-10-06T23:26:22.481Z,23.25
2022-10-06T23:28:55.345Z,23.27
2022-10-06T23:31:24.756Z,23.90
2022-10-06T23:33:54.711Z,23.33
2022-10-06T23:36:22.485Z,22.77
2022-10-06T23:38:50.929Z,23.10
2022-10-06T23:41:19.250Z,21.85
2022-10-06T23:43:47.220Z,22.98
2022-10-06T23:46:15.806Z,22.08
2022-10-06T23:48:43.929Z,22.88
2022-10-06T23:51:17.907Z,23.55
2022-10-06T23:53:47.521Z,22.98
2022-10-06T23:56:15.469Z,21.25
2022-10-06T23:58:43.568Z,22.73
